Wetterdaten: Woche 02.08.21 - 08.08.21 (KW31)
Datum Zeit Temp. Aussen Temp. o. S. Temp +5cm Feuchte Auss Luftdruck Regen Sonnenschein Regendauer Solar Windben Empfang
02.08.2021 00:00 16,0 C 15,2 C 14,7 C 91 % 1012,6 hPa 0,0 l/m 0,00 h 0,00 h 0 W/m 5,0 km/h (1 Bft) 96,06 %
02.08.2021 01:00 15,8 C 15,0 C 14,6 C 93 % 1012,7 hPa 0,0 l/m 0,00 h 0,00 h 0 W/m 2,5 km/h (1 Bft) 97,51 %
02.08.2021 02:00 15,6 C 15,0 C 14,9 C 93 % 1012,8 hPa 0,0 l/m 0,00 h 0,00 h 0 W/m 3,7 km/h (1 Bft) 99,71 %
02.08.2021 03:00 15,4 C 14,4 C 14,5 C 92 % 1012,9 hPa 0,0 l/m 0,00 h 0,00 h 0 W/m 2,5 km/h (1 Bft) 97,72 %
02.08.2021 04:00 15,1 C 14,3 C 14,4 C 91 % 1013,0 hPa 0,0 l/m 0,00 h 0,00 h 0 W/m 4,2 km/h (1 Bft) 97,65 %
02.08.2021 05:00 14,8 C 13,9 C 13,9 C 91 % 1013,1 hPa 0,0 l/m 0,00 h 0,00 h 0 W/m 1,9 km/h (1 Bft) 98,86 %
02.08.2021 06:00 14,7 C 13,9 C 13,9 C 92 % 1013,5 hPa 0,0 l/m 0,00 h 0,00 h 10 W/m 1,2 km/h (1 Bft) 96,12 %
02.08.2021 07:00 14,8 C 14,3 C 14,4 C 92 % 1013,7 hPa 0,0 l/m 0,00 h 0,00 h 41 W/m 1,8 km/h (1 Bft) 95,84 %
02.08.2021 08:00 15,1 C 14,9 C 14,8 C 90 % 1014,1 hPa 0,0 l/m 0,00 h 0,00 h 89 W/m 3,7 km/h (1 Bft) 98,86 %
02.08.2021 09:00 15,8 C 16,0 C 15,6 C 85 % 1014,5 hPa 0,0 l/m 0,00 h 0,00 h 174 W/m 8,0 km/h (2 Bft) 95,81 %
02.08.2021 10:00 15,9 C 15,7 C 15,0 C 84 % 1014,7 hPa 0,0 l/m 0,00 h 0,00 h 143 W/m 7,5 km/h (2 Bft) 98,35 %
02.08.2021 11:00 16,2 C 17,0 C 16,1 C 79 % 1014,8 hPa 0,0 l/m 0,23 h 0,00 h 317 W/m 5,7 km/h (1 Bft) 98,59 %
02.08.2021 12:00 17,5 C 18,6 C 17,3 C 73 % 1014,8 hPa 0,0 l/m 0,40 h 0,00 h 409 W/m 8,2 km/h (2 Bft) 94,69 %
02.08.2021 13:00 18,4 C 19,4 C 17,7 C 72 % 1014,7 hPa 0,0 l/m 0,63 h 0,00 h 412 W/m 8,0 km/h (2 Bft) 98,87 %
02.08.2021 14:00 18,8 C 19,5 C 17,7 C 72 % 1014,7 hPa 0,0 l/m 0,53 h 0,00 h 392 W/m 8,8 km/h (2 Bft) 99,08 %
02.08.2021 15:00 19,6 C 20,6 C 18,2 C 70 % 1014,5 hPa 0,0 l/m 0,63 h 0,00 h 406 W/m 8,0 km/h (2 Bft) 96,26 %
02.08.2021 16:00 19,7 C 19,9 C 17,5 C 70 % 1014,4 hPa 0,0 l/m 0,33 h 0,00 h 248 W/m 10,5 km/h (2 Bft) 97,02 %
02.08.2021 17:00 16,3 C 15,4 C 13,6 C 85 % 1015,0 hPa 0,2 l/m 0,00 h 0,20 h 55 W/m 14,8 km/h (3 Bft) 96,58 %
02.08.2021 18:00 15,8 C 16,2 C 14,4 C 91 % 1014,8 hPa 0,0 l/m 0,10 h 0,07 h 125 W/m 3,3 km/h (1 Bft) 99,35 %
02.08.2021 19:00 16,8 C 17,2 C 15,6 C 84 % 1014,7 hPa 0,0 l/m 0,10 h 0,00 h 99 W/m 2,6 km/h (1 Bft) 96,23 %
02.08.2021 20:00 17,0 C 16,4 C 15,0 C 82 % 1014,8 hPa 0,0 l/m 0,00 h 0,00 h 31 W/m 1,2 km/h (1 Bft) 95,76 %
02.08.2021 21:00 16,5 C 15,0 C 13,9 C 83 % 1015,2 hPa 0,0 l/m 0,00 h 0,00 h 7 W/m 0,1 km/h (0 Bft) 99,07 %
02.08.2021 22:00 15,0 C 13,1 C 12,5 C 87 % 1015,3 hPa 0,0 l/m 0,00 h 0,00 h 0 W/m 0,0 km/h (0 Bft) 98,22 %
02.08.2021 23:00 13,8 C 12,4 C 12,0 C 90 % 1015,3 hPa 0,0 l/m 0,00 h 0,00 h 0 W/m 0,4 km/h (0 Bft) 97,65 %
03.08.2021 00:00 13,0 C 11,8 C 11,7 C 92 % 1015,1 hPa 0,0 l/m 0,00 h 0,00 h 0 W/m 0,4 km/h (0 Bft) 97,45 %
03.08.2021 01:00 12,6 C 11,8 C 11,8 C 93 % 1015,1 hPa 0,0 l/m 0,00 h 0,00 h 0 W/m 1,5 km/h (1 Bft) 99,65 %
03.08.2021 02:00 12,2 C 11,3 C 11,2 C 93 % 1014,8 hPa 0,0 l/m 0,00 h 0,00 h 0 W/m 0,5 km/h (0 Bft) 97,86 %
03.08.2021 03:00 12,0 C 11,6 C 11,5 C 94 % 1014,6 hPa 0,0 l/m 0,00 h 0,00 h 0 W/m 0,0 km/h (0 Bft) 97,63 %
03.08.2021 04:00 12,2 C 11,9 C 12,0 C 95 % 1014,4 hPa 0,2 l/m 0,00 h 0,23 h 0 W/m 0,1 km/h (0 Bft) 97,09 %
03.08.2021 05:00 12,6 C 12,1 C 12,3 C 95 % 1014,1 hPa 0,4 l/m 0,00 h 0,47 h 0 W/m 1,1 km/h (0 Bft) 96,38 %
03.08.2021 06:00 13,1 C 12,5 C 12,6 C 96 % 1014,1 hPa 0,0 l/m 0,00 h 0,17 h 14 W/m 0,0 km/h (0 Bft) 89,16 %
03.08.2021 07:00 13,6 C 13,1 C 13,4 C 96 % 1014,0 hPa 0,2 l/m 0,00 h 0,03 h 38 W/m 1,0 km/h (0 Bft) 97,01 %
03.08.2021 08:00 14,0 C 13,9 C 13,9 C 97 % 1013,9 hPa 0,0 l/m 0,00 h 0,00 h 54 W/m 1,7 km/h (1 Bft) 95,72 %
03.08.2021 09:00 14,5 C 15,1 C 15,0 C 97 % 1013,7 hPa 0,0 l/m 0,00 h 0,03 h 140 W/m 3,0 km/h (1 Bft) 95,22 %
03.08.2021 10:00 15,4 C 16,5 C 15,9 C 93 % 1013,5 hPa 0,0 l/m 0,00 h 0,00 h 194 W/m 5,4 km/h (1 Bft) 96,24 %
03.08.2021 11:00 17,2 C 18,6 C 17,9 C 84 % 1013,3 hPa 0,0 l/m 0,57 h 0,00 h 364 W/m 7,0 km/h (2 Bft) 97,93 %
03.08.2021 12:00 18,7 C 19,1 C 17,8 C 75 % 1013,1 hPa 0,0 l/m 0,10 h 0,00 h 222 W/m 4,6 km/h (1 Bft) 95,98 %
03.08.2021 13:00 18,3 C 18,0 C 16,4 C 77 % 1012,9 hPa 0,0 l/m 0,00 h 0,07 h 142 W/m 5,9 km/h (2 Bft) 96,16 %
03.08.2021 14:00 18,6 C 19,3 C 17,5 C 77 % 1012,6 hPa 0,0 l/m 0,30 h 0,00 h 347 W/m 13,1 km/h (3 Bft) 98,22 %
03.08.2021 15:00 18,9 C 18,9 C 16,8 C 73 % 1012,4 hPa 0,0 l/m 0,00 h 0,00 h 164 W/m 9,2 km/h (2 Bft) 98,66 %
03.08.2021 16:00 19,0 C 19,3 C 17,1 C 74 % 1012,5 hPa 0,0 l/m 0,00 h 0,00 h 230 W/m 8,8 km/h (2 Bft) 95,87 %
03.08.2021 17:00 19,2 C 19,1 C 16,8 C 72 % 1012,4 hPa 0,0 l/m 0,07 h 0,00 h 177 W/m 7,9 km/h (2 Bft) 95,82 %
03.08.2021 18:00 20,0 C 21,3 C 17,4 C 70 % 1012,2 hPa 0,0 l/m 0,63 h 0,00 h 243 W/m 8,9 km/h (2 Bft) 99,78 %
03.08.2021 19:00 19,8 C 20,0 C 16,9 C 70 % 1012,3 hPa 0,0 l/m 0,67 h 0,00 h 165 W/m 10,1 km/h (2 Bft) 97,51 %
03.08.2021 20:00 18,9 C 18,0 C 15,6 C 70 % 1012,7 hPa 0,0 l/m 0,50 h 0,00 h 50 W/m 7,3 km/h (2 Bft) 94,80 %
03.08.2021 21:00 17,7 C 16,4 C 14,3 C 79 % 1013,0 hPa 0,0 l/m 0,00 h 0,00 h 7 W/m 5,7 km/h (1 Bft) 99,29 %
03.08.2021 22:00 16,5 C 15,1 C 13,4 C 83 % 1013,3 hPa 0,0 l/m 0,00 h 0,00 h 0 W/m 3,1 km/h (1 Bft) 96,80 %
03.08.2021 23:00 15,5 C 14,3 C 13,1 C 87 % 1013,6 hPa 0,0 l/m 0,00 h 0,00 h 0 W/m 1,6 km/h (1 Bft) 98,32 %
04.08.2021 00:00 15,4 C 14,9 C 13,5 C 88 % 1013,6 hPa 0,0 l/m 0,00 h 0,00 h 0 W/m 1,7 km/h (1 Bft) 99,10 %
04.08.2021 01:00 15,5 C 15,0 C 13,9 C 88 % 1013,6 hPa 0,0 l/m 0,00 h 0,00 h 0 W/m 1,3 km/h (1 Bft) 96,08 %
04.08.2021 02:00 15,4 C 14,3 C 13,4 C 88 % 1013,5 hPa 0,0 l/m 0,00 h 0,00 h 0 W/m 1,7 km/h (1 Bft) 96,26 %
04.08.2021 03:00 14,4 C 13,0 C 12,4 C 90 % 1013,5 hPa 0,0 l/m 0,00 h 0,00 h 0 W/m 0,4 km/h (0 Bft) 98,23 %
04.08.2021 04:00 13,4 C 12,1 C 11,7 C 92 % 1013,3 hPa 0,0 l/m 0,00 h 0,00 h 0 W/m 1,3 km/h (1 Bft) 98,63 %
04.08.2021 05:00 12,7 C 11,7 C 11,6 C 93 % 1013,3 hPa 0,0 l/m 0,00 h 0,00 h 0 W/m 0,1 km/h (0 Bft) 97,30 %
04.08.2021 06:00 12,2 C 11,5 C 11,3 C 94 % 1013,6 hPa 0,0 l/m 0,00 h 0,00 h 17 W/m 2,0 km/h (1 Bft) 97,79 %
04.08.2021 07:00 12,5 C 12,5 C 12,3 C 95 % 1013,9 hPa 0,0 l/m 0,00 h 0,00 h 58 W/m 1,1 km/h (0 Bft) 99,43 %
04.08.2021 08:00 13,6 C 14,0 C 13,6 C 95 % 1014,2 hPa 0,0 l/m 0,00 h 0,00 h 108 W/m 2,7 km/h (1 Bft) 96,27 %
04.08.2021 09:00 15,4 C 17,8 C 16,4 C 93 % 1014,3 hPa 0,0 l/m 0,75 h 0,00 h 313 W/m 4,7 km/h (1 Bft) 96,82 %
04.08.2021 10:00 18,4 C 22,7 C 18,8 C 83 % 1014,1 hPa 0,0 l/m 1,00 h 0,00 h 553 W/m 5,2 km/h (1 Bft) 80,20 %
04.08.2021 11:00 20,7 C 23,0 C 19,9 C 74 % 1013,8 hPa 0,0 l/m 1,00 h 0,00 h 794 W/m 7,1 km/h (2 Bft) 97,09 %
04.08.2021 12:00 22,8 C 25,8 C 24,9 C 65 % 1013,5 hPa 0,0 l/m 1,00 h 0,00 h 914 W/m 10,0 km/h (2 Bft) 98,50 %
04.08.2021 13:00 22,1 C 23,0 C 20,4 C 66 % 1013,3 hPa 0,0 l/m 0,47 h 0,00 h 434 W/m 8,8 km/h (2 Bft) 96,30 %
04.08.2021 14:00 22,6 C 24,7 C 20,6 C 64 % 1012,9 hPa 0,0 l/m 0,67 h 0,00 h 552 W/m 7,6 km/h (2 Bft) 98,04 %
04.08.2021 15:00 23,0 C 25,0 C 20,5 C 62 % 1012,7 hPa 0,0 l/m 0,43 h 0,00 h 441 W/m 7,8 km/h (2 Bft) 99,36 %
04.08.2021 16:00 24,4 C 29,1 C 21,3 C 58 % 1012,4 hPa 0,0 l/m 0,93 h 0,00 h 650 W/m 8,8 km/h (2 Bft) 96,01 %
04.08.2021 17:00 23,2 C 24,3 C 20,0 C 62 % 1012,2 hPa 0,0 l/m 0,23 h 0,00 h 238 W/m 5,6 km/h (1 Bft) 97,58 %
04.08.2021 18:00 22,6 C 23,1 C 19,3 C 63 % 1011,8 hPa 0,0 l/m 0,20 h 0,00 h 171 W/m 4,9 km/h (1 Bft) 98,41 %
04.08.2021 19:00 22,1 C 21,4 C 18,4 C 66 % 1011,6 hPa 0,0 l/m 0,00 h 0,00 h 63 W/m 2,1 km/h (1 Bft) 89,47 %
04.08.2021 20:00 21,2 C 19,9 C 17,3 C 72 % 1011,8 hPa 0,0 l/m 0,00 h 0,00 h 12 W/m 0,9 km/h (0 Bft) 98,08 %
04.08.2021 21:00 19,9 C 18,6 C 16,1 C 73 % 1012,2 hPa 0,0 l/m 0,00 h 0,00 h 0 W/m 3,0 km/h (1 Bft) 96,64 %
04.08.2021 22:00 18,7 C 17,5 C 15,3 C 80 % 1012,3 hPa 0,0 l/m 0,00 h 0,00 h 0 W/m 4,2 km/h (1 Bft) 97,43 %
04.08.2021 23:00 18,0 C 17,0 C 15,1 C 84 % 1012,2 hPa 0,0 l/m 0,00 h 0,00 h 0 W/m 1,5 km/h (1 Bft) 99,93 %
05.08.2021 00:00 17,7 C 16,7 C 15,0 C 86 % 1012,4 hPa 0,0 l/m 0,00 h 0,00 h 0 W/m 1,4 km/h (1 Bft) 95,80 %
05.08.2021 01:00 17,0 C 16,1 C 14,5 C 88 % 1012,0 hPa 0,0 l/m 0,00 h 0,00 h 0 W/m 1,8 km/h (1 Bft) 96,44 %
05.08.2021 02:00 16,8 C 16,1 C 15,0 C 89 % 1011,5 hPa 0,0 l/m 0,00 h 0,00 h 0 W/m 0,9 km/h (0 Bft) 97,73 %
05.08.2021 03:00 16,8 C 15,7 C 14,6 C 90 % 1011,2 hPa 0,0 l/m 0,00 h 0,00 h 0 W/m 0,2 km/h (0 Bft) 96,44 %
05.08.2021 04:00 16,5 C 15,6 C 14,5 C 91 % 1010,8 hPa 0,0 l/m 0,00 h 0,00 h 0 W/m 0,3 km/h (0 Bft) 98,86 %
05.08.2021 05:00 16,3 C 15,3 C 14,5 C 92 % 1010,6 hPa 0,0 l/m 0,00 h 0,00 h 0 W/m 0,0 km/h (0 Bft) 97,73 %
05.08.2021 06:00 16,0 C 15,1 C 14,6 C 93 % 1010,4 hPa 0,0 l/m 0,00 h 0,00 h 15 W/m 1,1 km/h (0 Bft) 96,64 %
05.08.2021 07:00 16,0 C 16,0 C 15,3 C 94 % 1010,2 hPa 0,0 l/m 0,10 h 0,00 h 74 W/m 2,4 km/h (1 Bft) 98,22 %
05.08.2021 08:00 16,8 C 17,6 C 16,6 C 92 % 1010,3 hPa 0,0 l/m 0,20 h 0,00 h 151 W/m 2,9 km/h (1 Bft) 94,44 %
05.08.2021 09:00 18,7 C 19,9 C 18,6 C 85 % 1010,4 hPa 0,0 l/m 0,43 h 0,00 h 270 W/m 5,7 km/h (1 Bft) 94,73 %
05.08.2021 10:00 19,6 C 19,6 C 18,2 C 80 % 1010,0 hPa 0,0 l/m 0,13 h 0,00 h 242 W/m 6,8 km/h (2 Bft) 99,37 %
05.08.2021 11:00 20,2 C 20,7 C 19,1 C 79 % 1009,8 hPa 0,0 l/m 0,23 h 0,00 h 305 W/m 6,4 km/h (2 Bft) 98,79 %
05.08.2021 12:00 21,5 C 22,4 C 20,8 C 70 % 1009,4 hPa 0,0 l/m 0,93 h 0,00 h 433 W/m 8,3 km/h (2 Bft) 95,69 %
05.08.2021 13:00 23,5 C 25,7 C 21,1 C 63 % 1008,8 hPa 0,0 l/m 0,87 h 0,00 h 773 W/m 10,3 km/h (2 Bft) 98,31 %
05.08.2021 14:00 24,4 C 26,1 C 21,7 C 61 % 1008,1 hPa 0,0 l/m 0,67 h 0,00 h 557 W/m 10,7 km/h (2 Bft) 97,93 %
05.08.2021 15:00 25,3 C 27,5 C 21,5 C 57 % 1007,5 hPa 0,0 l/m 0,63 h 0,00 h 638 W/m 9,9 km/h (2 Bft) 98,22 %
05.08.2021 16:00 25,5 C 27,1 C 21,5 C 57 % 1006,9 hPa 0,0 l/m 0,40 h 0,00 h 411 W/m 7,9 km/h (2 Bft) 96,08 %
05.08.2021 17:00 24,6 C 26,1 C 21,2 C 59 % 1006,4 hPa 0,0 l/m 0,53 h 0,00 h 315 W/m 7,8 km/h (2 Bft) 98,65 %
05.08.2021 18:00 25,4 C 28,8 C 21,9 C 57 % 1006,0 hPa 0,0 l/m 0,90 h 0,00 h 374 W/m 8,8 km/h (2 Bft) 99,63 %
05.08.2021 19:00 23,9 C 22,9 C 20,1 C 64 % 1005,8 hPa 0,0 l/m 0,07 h 0,00 h 96 W/m 8,1 km/h (2 Bft) 94,29 %
05.08.2021 20:00 22,6 C 21,4 C 19,0 C 67 % 1005,5 hPa 0,0 l/m 0,00 h 0,00 h 31 W/m 4,5 km/h (1 Bft) 98,98 %
05.08.2021 21:00 21,4 C 19,8 C 17,6 C 72 % 1005,5 hPa 0,0 l/m 0,00 h 0,00 h 7 W/m 3,8 km/h (1 Bft) 99,00 %
05.08.2021 22:00 20,2 C 18,9 C 16,8 C 78 % 1005,4 hPa 0,0 l/m 0,00 h 0,17 h 0 W/m 6,1 km/h (2 Bft) 96,08 %
05.08.2021 23:00 18,9 C 17,4 C 14,5 C 85 % 1005,1 hPa 0,6 l/m 0,00 h 0,40 h 0 W/m 4,8 km/h (1 Bft) 97,37 %
06.08.2021 00:00 18,0 C 17,2 C 14,8 C 89 % 1004,4 hPa 0,0 l/m 0,00 h 0,00 h 0 W/m 7,1 km/h (2 Bft) 97,19 %
06.08.2021 01:00 17,8 C 16,9 C 15,3 C 92 % 1003,8 hPa 0,0 l/m 0,00 h 0,00 h 0 W/m 7,8 km/h (2 Bft) 95,65 %
06.08.2021 02:00 17,6 C 16,7 C 15,7 C 92 % 1003,4 hPa 0,0 l/m 0,00 h 0,00 h 0 W/m 6,4 km/h (2 Bft) 99,50 %
06.08.2021 03:00 17,5 C 16,7 C 16,1 C 92 % 1003,1 hPa 0,0 l/m 0,00 h 0,00 h 0 W/m 5,2 km/h (1 Bft) 98,08 %
06.08.2021 04:00 17,4 C 16,5 C 15,8 C 92 % 1002,9 hPa 0,8 l/m 0,00 h 0,27 h 0 W/m 9,2 km/h (2 Bft) 97,42 %
06.08.2021 05:00 17,0 C 16,1 C 15,3 C 93 % 1002,5 hPa 0,0 l/m 0,00 h 0,20 h 0 W/m 4,9 km/h (1 Bft) 96,29 %
06.08.2021 06:00 16,8 C 15,8 C 15,6 C 95 % 1002,5 hPa 0,4 l/m 0,00 h 0,43 h 6 W/m 7,3 km/h (2 Bft) 96,51 %
06.08.2021 07:00 16,8 C 16,2 C 15,9 C 96 % 1002,4 hPa 0,2 l/m 0,00 h 0,10 h 40 W/m 9,2 km/h (2 Bft) 97,51 %
06.08.2021 08:00 17,1 C 16,8 C 16,6 C 96 % 1002,7 hPa 0,0 l/m 0,00 h 0,30 h 73 W/m 7,4 km/h (2 Bft) 97,65 %
06.08.2021 09:00 18,1 C 18,6 C 17,8 C 95 % 1003,0 hPa 1,8 l/m 0,40 h 0,23 h 195 W/m 15,8 km/h (3 Bft) 99,07 %
06.08.2021 10:00 17,7 C 17,4 C 17,3 C 94 % 1003,6 hPa 0,0 l/m 0,03 h 0,23 h 208 W/m 18,3 km/h (3 Bft) 98,36 %
06.08.2021 11:00 18,4 C 19,4 C 18,3 C 92 % 1003,6 hPa 0,0 l/m 0,43 h 0,00 h 392 W/m 17,6 km/h (3 Bft) 97,51 %
06.08.2021 12:00 20,3 C 20,5 C 19,0 C 83 % 1003,6 hPa 0,0 l/m 0,10 h 0,00 h 271 W/m 15,9 km/h (3 Bft) 96,91 %
06.08.2021 13:00 20,7 C 21,4 C 20,1 C 78 % 1003,6 hPa 0,0 l/m 0,47 h 0,00 h 441 W/m 20,0 km/h (4 Bft) 97,86 %
06.08.2021 14:00 22,2 C 23,4 C 21,1 C 71 % 1003,6 hPa 0,0 l/m 0,77 h 0,00 h 573 W/m 30,4 km/h (5 Bft) 98,29 %
06.08.2021 15:00 22,6 C 23,8 C 20,7 C 69 % 1003,7 hPa 0,0 l/m 0,60 h 0,00 h 579 W/m 30,6 km/h (5 Bft) 96,72 %
06.08.2021 16:00 22,7 C 24,1 C 20,5 C 69 % 1003,9 hPa 0,0 l/m 0,53 h 0,00 h 431 W/m 20,3 km/h (4 Bft) 98,29 %
06.08.2021 17:00 22,4 C 22,7 C 19,7 C 68 % 1004,1 hPa 0,0 l/m 0,27 h 0,00 h 221 W/m 21,1 km/h (4 Bft) 97,30 %
06.08.2021 18:00 21,9 C 22,0 C 19,1 C 70 % 1004,2 hPa 0,0 l/m 0,20 h 0,00 h 156 W/m 21,2 km/h (4 Bft) 97,35 %
06.08.2021 19:00 20,1 C 18,7 C 16,6 C 77 % 1004,7 hPa 2,2 l/m 0,07 h 0,33 h 44 W/m 23,3 km/h (4 Bft) 99,79 %
06.08.2021 20:00 17,8 C 16,6 C 15,0 C 93 % 1004,9 hPa 0,2 l/m 0,13 h 0,00 h 37 W/m 12,7 km/h (3 Bft) 95,66 %
06.08.2021 21:00 17,2 C 16,1 C 15,0 C 93 % 1005,1 hPa 0,0 l/m 0,00 h 0,00 h 5 W/m 15,1 km/h (3 Bft) 96,30 %
06.08.2021 22:00 16,8 C 16,0 C 15,0 C 93 % 1005,5 hPa 0,0 l/m 0,00 h 0,00 h 0 W/m 16,2 km/h (3 Bft) 99,50 %
06.08.2021 23:00 16,7 C 15,7 C 15,0 C 92 % 1005,3 hPa 0,0 l/m 0,00 h 0,23 h 0 W/m 13,1 km/h (3 Bft) 95,03 %
07.08.2021 00:00 16,5 C 15,6 C 15,3 C 93 % 1005,2 hPa 0,0 l/m 0,00 h 0,05 h 0 W/m 7,3 km/h (2 Bft) 99,14 %
07.08.2021 01:00 16,5 C 15,6 C 15,6 C 94 % 1005,4 hPa 0,4 l/m 0,00 h 0,17 h 0 W/m 3,8 km/h (1 Bft) 99,57 %
07.08.2021 02:00 16,3 C 15,3 C 15,6 C 95 % 1005,2 hPa 0,4 l/m 0,00 h 0,67 h 0 W/m 5,9 km/h (2 Bft) 96,37 %
07.08.2021 03:00 15,9 C 14,7 C 15,3 C 95 % 1004,9 hPa 0,0 l/m 0,00 h 0,07 h 0 W/m 3,0 km/h (1 Bft) 96,78 %
07.08.2021 04:00 15,1 C 13,9 C 14,8 C 95 % 1004,7 hPa 0,2 l/m 0,00 h 0,00 h 0 W/m 4,1 km/h (1 Bft) 97,66 %
07.08.2021 05:00 14,6 C 13,9 C 14,6 C 96 % 1004,4 hPa 0,0 l/m 0,00 h 0,00 h 0 W/m 3,7 km/h (1 Bft) 94,24 %
07.08.2021 06:00 14,5 C 14,0 C 14,7 C 96 % 1004,2 hPa 0,0 l/m 0,00 h 0,00 h 11 W/m 4,9 km/h (1 Bft) 99,05 %
07.08.2021 07:00 14,8 C 14,4 C 15,0 C 96 % 1004,2 hPa 0,0 l/m 0,00 h 0,00 h 47 W/m 6,4 km/h (2 Bft) 98,07 %
07.08.2021 08:00 15,5 C 15,9 C 15,9 C 95 % 1004,0 hPa 0,0 l/m 0,10 h 0,00 h 142 W/m 7,2 km/h (2 Bft) 97,34 %
07.08.2021 09:00 17,1 C 17,8 C 17,4 C 92 % 1004,0 hPa 0,0 l/m 0,20 h 0,00 h 206 W/m 10,2 km/h (2 Bft) 99,22 %
07.08.2021 10:00 19,0 C 20,6 C 19,9 C 84 % 1003,8 hPa 0,0 l/m 0,80 h 0,00 h 403 W/m 13,6 km/h (3 Bft) 97,65 %
07.08.2021 11:00 20,2 C 21,1 C 21,1 C 77 % 1003,4 hPa 0,0 l/m 0,90 h 0,00 h 459 W/m 19,0 km/h (3 Bft) 96,44 %
07.08.2021 12:00 22,3 C 24,2 C 23,2 C 68 % 1003,0 hPa 0,0 l/m 0,80 h 0,00 h 784 W/m 20,6 km/h (4 Bft) 97,98 %
07.08.2021 13:00 21,7 C 22,1 C 22,0 C 66 % 1002,6 hPa 0,0 l/m 0,20 h 0,00 h 339 W/m 21,3 km/h (4 Bft) 98,01 %
07.08.2021 14:00 22,9 C 25,1 C 22,0 C 62 % 1002,1 hPa 0,0 l/m 0,83 h 0,00 h 664 W/m 20,2 km/h (4 Bft) 96,23 %
07.08.2021 15:00 23,3 C 24,3 C 22,0 C 58 % 1001,7 hPa 0,0 l/m 0,60 h 0,00 h 472 W/m 21,0 km/h (4 Bft) 99,29 %
07.08.2021 16:00 23,2 C 24,2 C 20,4 C 58 % 1001,4 hPa 0,0 l/m 0,40 h 0,00 h 354 W/m 19,6 km/h (3 Bft) 96,58 %
07.08.2021 17:00 23,0 C 23,2 C 20,1 C 59 % 1001,0 hPa 0,0 l/m 0,40 h 0,00 h 231 W/m 18,8 km/h (3 Bft) 97,79 %
07.08.2021 18:00 22,7 C 22,4 C 19,6 C 60 % 1001,1 hPa 0,0 l/m 0,20 h 0,00 h 139 W/m 23,3 km/h (4 Bft) 96,76 %
07.08.2021 19:00 22,2 C 21,8 C 19,2 C 63 % 1001,3 hPa 0,0 l/m 0,40 h 0,00 h 119 W/m 26,5 km/h (4 Bft) 99,01 %
07.08.2021 20:00 20,7 C 19,6 C 16,9 C 71 % 1001,7 hPa 0,0 l/m 0,23 h 0,27 h 31 W/m 18,8 km/h (3 Bft) 95,44 %
07.08.2021 21:00 18,6 C 17,8 C 15,6 C 79 % 1002,1 hPa 0,0 l/m 0,00 h 0,00 h 8 W/m 10,4 km/h (2 Bft) 95,44 %
07.08.2021 22:00 18,5 C 17,7 C 15,6 C 80 % 1002,5 hPa 0,0 l/m 0,00 h 0,00 h 0 W/m 19,0 km/h (3 Bft) 98,43 %
07.08.2021 23:00 17,8 C 16,9 C 14,8 C 82 % 1003,0 hPa 0,0 l/m 0,00 h 0,00 h 0 W/m 20,2 km/h (4 Bft) 97,74 %
08.08.2021 00:00 17,2 C 16,5 C 14,5 C 82 % 1003,6 hPa 0,0 l/m 0,00 h 0,00 h 0 W/m 21,7 km/h (4 Bft) 96,48 %
08.08.2021 01:00 16,8 C 15,9 C 13,6 C 83 % 1004,0 hPa 0,0 l/m 0,00 h 0,40 h 0 W/m 23,4 km/h (4 Bft) 99,29 %
08.08.2021 02:00 16,4 C 15,7 C 13,2 C 87 % 1004,3 hPa 0,2 l/m 0,00 h 0,17 h 0 W/m 25,5 km/h (4 Bft) 96,79 %
08.08.2021 03:00 16,6 C 16,1 C 13,9 C 84 % 1004,6 hPa 0,0 l/m 0,00 h 0,00 h 0 W/m 29,4 km/h (5 Bft) 97,06 %
08.08.2021 04:00 16,6 C 16,0 C 13,9 C 82 % 1005,1 hPa 0,0 l/m 0,00 h 0,00 h 0 W/m 26,6 km/h (4 Bft) 99,29 %
08.08.2021 05:00 15,9 C 15,1 C 13,4 C 83 % 1005,7 hPa 0,0 l/m 0,00 h 0,00 h 0 W/m 20,1 km/h (4 Bft) 96,43 %
08.08.2021 06:00 15,3 C 14,4 C 12,8 C 84 % 1006,4 hPa 0,0 l/m 0,00 h 0,00 h 13 W/m 23,5 km/h (4 Bft) 97,72 %
08.08.2021 07:00 15,5 C 15,1 C 13,3 C 84 % 1007,1 hPa 0,0 l/m 0,00 h 0,00 h 49 W/m 26,0 km/h (4 Bft) 98,22 %
08.08.2021 08:00 16,0 C 15,6 C 13,7 C 83 % 1007,9 hPa 0,0 l/m 0,00 h 0,00 h 62 W/m 21,2 km/h (4 Bft) 97,30 %
08.08.2021 09:00 16,7 C 17,1 C 15,0 C 80 % 1008,6 hPa 0,0 l/m 0,23 h 0,00 h 223 W/m 26,3 km/h (4 Bft) 97,15 %
08.08.2021 10:00 17,9 C 18,9 C 16,2 C 74 % 1009,0 hPa 0,0 l/m 0,43 h 0,00 h 373 W/m 28,6 km/h (4 Bft) 99,43 %
08.08.2021 11:00 18,4 C 18,8 C 16,9 C 72 % 1009,6 hPa 0,0 l/m 0,30 h 0,00 h 366 W/m 25,3 km/h (4 Bft) 95,51 %
08.08.2021 12:00 18,6 C 18,8 C 16,8 C 71 % 1010,0 hPa 0,0 l/m 0,27 h 0,00 h 324 W/m 26,7 km/h (4 Bft) 98,57 %
08.08.2021 13:00 18,9 C 18,8 C 15,9 C 73 % 1010,2 hPa 0,6 l/m 0,33 h 0,20 h 401 W/m 25,6 km/h (4 Bft) 98,64 %
08.08.2021 14:00 19,6 C 20,7 C 15,0 C 73 % 1010,3 hPa 0,0 l/m 0,67 h 0,00 h 603 W/m 22,1 km/h (4 Bft) 96,64 %
08.08.2021 15:00 19,9 C 21,4 C 16,8 C 70 % 1010,6 hPa 0,0 l/m 0,63 h 0,17 h 531 W/m 23,1 km/h (4 Bft) 97,36 %
08.08.2021 16:00 21,0 C 24,3 C 18,0 C 62 % 1010,7 hPa 0,0 l/m 0,87 h 0,00 h 614 W/m 25,1 km/h (4 Bft) 97,44 %
08.08.2021 17:00 20,7 C 22,5 C 17,8 C 63 % 1011,3 hPa 0,0 l/m 0,60 h 0,00 h 376 W/m 26,9 km/h (4 Bft) 98,57 %
08.08.2021 18:00 19,2 C 22,4 C 16,6 C 67 % 1012,0 hPa 0,0 l/m 0,80 h 0,03 h 362 W/m 19,3 km/h (3 Bft) 96,76 %
08.08.2021 19:00 19,4 C 19,0 C 16,1 C 68 % 1012,4 hPa 0,0 l/m 0,33 h 0,00 h 107 W/m 11,3 km/h (2 Bft) 97,36 %
08.08.2021 20:00 17,9 C 16,9 C 14,7 C 72 % 1013,0 hPa 0,0 l/m 0,00 h 0,00 h 16 W/m 19,7 km/h (3 Bft) 97,93 %
08.08.2021 21:00 16,5 C 15,6 C 13,0 C 81 % 1013,6 hPa 0,0 l/m 0,00 h 0,30 h 5 W/m 7,3 km/h (2 Bft) 97,44 %
08.08.2021 22:00 15,9 C 15,0 C 13,1 C 85 % 1014,2 hPa 0,0 l/m 0,00 h 0,00 h 0 W/m 9,6 km/h (2 Bft) 97,15 %
08.08.2021 23:00 15,8 C 15,0 C 13,4 C 85 % 1014,4 hPa 0,0 l/m 0,00 h 0,00 h 0 W/m 9,1 km/h (2 Bft) 98,29 %
Min-Datum _ 03.08.21 03.08.21 03.08.21 04.08.21 07.08.21 - - - - 02.08.21 05.08.21
_ Min-Zeit 03:00 02:24 02:14 16:30 17:38 - - - - 01:06 05:20
Minimum _ 11,9 C 11,1 C 11,1 C 54 % 1000,9 hPa - - - - 0,0 km/h (0 Bft) 51,16 %
Max-Datum _ 05.08.21 05.08.21 04.08.21 03.08.21 02.08.21 06.08.21 03.08.21 06.08.21 07.08.21 08.08.21 02.08.21
_ Max-Zeit 16:04 16:04 12:28 07:22 22:48 19:40 18:08 06:08 14:32 13:20 00:08
Maximum _ 26,3 C 31,1 C 28,4 C 97 % 1015,4 hPa 2,2 l/m 0,07 h 0,07 h 1085 W/m 70,8 km/h
S-SO (8 Bft)
100,00 %
Durchschnitt _ 18,0 C 18,0 C 16,3 C 81 % 1009,4 hPa #9,0 l/m #34:07 h #6:39 h 252 W/m 9,8 km/h (2 Bft) 97,27 %
© 2021 W. Hausmann